Dataw Island, South Carolina
Current Conditions -  °F | °C
As of 6:15 PM on Friday 31 Oct 2014 (Local Time) from KARW Reporting Station
Scattered Clouds Scattered Clouds  
Wind Chill: 68°   Ceiling: Unl
Heat Index: 68°   Visibility: 7mi
Dew Point: 46°   Wind: 3mph
Humidity: 46%   Direction: 50°NE
Pressure: 29.79"   Gusts: NA
Location:  32.3871°N, 80.5485°W
Report Text: KARW 312215Z AUTO 05003KT 7SM SCT065 20/08 A2979 RMK AO2
Loading
Personal Weather Stations






























Interactive Weather Map
Tropical Storm Tracking
New forecast layout! Learn more

10-Day Weather Forecast

Advertisements
Track Severe Weather on mobile